sensor_id;sensor_type;location;lat;lon;timestamp;temperature;humidity
55213;DHT22;41083;52.932;6.674;2024-02-26T00:02:19;4.80;99.90
55213;DHT22;41083;52.932;6.674;2024-02-26T00:04:44;4.90;99.90
55213;DHT22;41083;52.932;6.674;2024-02-26T00:07:10;4.80;99.90
55213;DHT22;41083;52.932;6.674;2024-02-26T00:09:35;4.80;99.90
55213;DHT22;41083;52.932;6.674;2024-02-26T00:12:03;4.80;99.90
55213;DHT22;41083;52.932;6.674;2024-02-26T00:14:30;4.80;99.90
55213;DHT22;41083;52.932;6.674;2024-02-26T00:16:55;4.80;99.90
55213;DHT22;41083;52.932;6.674;2024-02-26T00:19:21;4.80;99.90
55213;DHT22;41083;52.932;6.674;2024-02-26T00:21:47;4.80;99.90
55213;DHT22;41083;52.932;6.674;2024-02-26T00:24:12;4.80;99.90
55213;DHT22;41083;52.932;6.674;2024-02-26T00:26:38;4.80;99.90
55213;DHT22;41083;52.932;6.674;2024-02-26T00:29:04;4.80;99.90
55213;DHT22;41083;52.932;6.674;2024-02-26T00:31:29;4.80;99.90
55213;DHT22;41083;52.932;6.674;2024-02-26T00:33:55;4.70;99.90
55213;DHT22;41083;52.932;6.674;2024-02-26T00:36:21;4.80;99.90
55213;DHT22;41083;52.932;6.674;2024-02-26T00:38:47;4.80;99.90
55213;DHT22;41083;52.932;6.674;2024-02-26T00:41:20;4.70;99.90
55213;DHT22;41083;52.932;6.674;2024-02-26T00:43:46;4.70;99.90
55213;DHT22;41083;52.932;6.674;2024-02-26T00:46:12;4.70;99.90
55213;DHT22;41083;52.932;6.674;2024-02-26T00:48:37;4.70;99.90
55213;DHT22;41083;52.932;6.674;2024-02-26T00:51:03;4.70;99.90
55213;DHT22;41083;52.932;6.674;2024-02-26T00:53:33;4.70;99.90
55213;DHT22;41083;52.932;6.674;2024-02-26T00:55:59;4.60;99.90
55213;DHT22;41083;52.932;6.674;2024-02-26T00:58:25;4.70;99.90
55213;DHT22;41083;52.932;6.674;2024-02-26T01:00:51;4.70;99.90
55213;DHT22;41083;52.932;6.674;2024-02-26T01:03:20;4.60;99.90
55213;DHT22;41083;52.932;6.674;2024-02-26T01:05:45;4.70;99.90
55213;DHT22;41083;52.932;6.674;2024-02-26T01:08:11;4.70;99.90
55213;DHT22;41083;52.932;6.674;2024-02-26T01:10:37;4.70;99.90
55213;DHT22;41083;52.932;6.674;2024-02-26T01:13:02;4.60;99.90
55213;DHT22;41083;52.932;6.674;2024-02-26T01:15:28;4.60;99.90
55213;DHT22;41083;52.932;6.674;2024-02-26T01:17:54;4.60;99.90
55213;DHT22;41083;52.932;6.674;2024-02-26T01:20:20;4.60;99.90
55213;DHT22;41083;52.932;6.674;2024-02-26T01:22:45;4.60;99.90
55213;DHT22;41083;52.932;6.674;2024-02-26T01:25:11;4.60;99.90
55213;DHT22;41083;52.932;6.674;2024-02-26T01:27:37;4.60;99.90
55213;DHT22;41083;52.932;6.674;2024-02-26T01:30:04;4.60;99.90
55213;DHT22;41083;52.932;6.674;2024-02-26T01:32:30;4.60;99.90
55213;DHT22;41083;52.932;6.674;2024-02-26T01:34:56;4.60;99.90
55213;DHT22;41083;52.932;6.674;2024-02-26T01:37:22;4.60;99.90
55213;DHT22;41083;52.932;6.674;2024-02-26T01:39:48;4.60;99.90
55213;DHT22;41083;52.932;6.674;2024-02-26T01:42:13;4.60;99.90
55213;DHT22;41083;52.932;6.674;2024-02-26T01:44:39;4.60;99.90
55213;DHT22;41083;52.932;6.674;2024-02-26T01:47:11;4.60;99.90
55213;DHT22;41083;52.932;6.674;2024-02-26T01:49:37;4.60;99.90
55213;DHT22;41083;52.932;6.674;2024-02-26T01:52:06;4.60;99.90
55213;DHT22;41083;52.932;6.674;2024-02-26T01:54:34;4.60;99.90
55213;DHT22;41083;52.932;6.674;2024-02-26T01:57:00;4.60;99.90
55213;DHT22;41083;52.932;6.674;2024-02-26T01:59:26;4.60;99.90
55213;DHT22;41083;52.932;6.674;2024-02-26T02:01:55;4.60;99.90
55213;DHT22;41083;52.932;6.674;2024-02-26T02:04:23;4.60;99.90
55213;DHT22;41083;52.932;6.674;2024-02-26T02:06:50;4.60;99.90
55213;DHT22;41083;52.932;6.674;2024-02-26T02:09:18;4.60;99.90
55213;DHT22;41083;52.932;6.674;2024-02-26T02:11:43;4.50;99.90
55213;DHT22;41083;52.932;6.674;2024-02-26T02:14:10;4.50;99.90
55213;DHT22;41083;52.932;6.674;2024-02-26T02:16:35;4.60;99.90
55213;DHT22;41083;52.932;6.674;2024-02-26T02:19:01;4.60;99.90
55213;DHT22;41083;52.932;6.674;2024-02-26T02:21:27;4.60;99.90
55213;DHT22;41083;52.932;6.674;2024-02-26T02:23:52;4.50;99.90
55213;DHT22;41083;52.932;6.674;2024-02-26T02:26:18;4.60;99.90
55213;DHT22;41083;52.932;6.674;2024-02-26T02:28:45;4.50;99.90
55213;DHT22;41083;52.932;6.674;2024-02-26T02:31:11;4.60;99.90
55213;DHT22;41083;52.932;6.674;2024-02-26T02:33:36;4.60;99.90
55213;DHT22;41083;52.932;6.674;2024-02-26T02:36:02;4.60;99.90
55213;DHT22;41083;52.932;6.674;2024-02-26T02:38:28;4.60;99.90
55213;DHT22;41083;52.932;6.674;2024-02-26T02:40:55;4.50;99.90
55213;DHT22;41083;52.932;6.674;2024-02-26T02:43:21;4.50;99.90
55213;DHT22;41083;52.932;6.674;2024-02-26T02:45:47;4.50;99.90
55213;DHT22;41083;52.932;6.674;2024-02-26T02:48:12;4.50;99.90
55213;DHT22;41083;52.932;6.674;2024-02-26T02:50:39;4.50;99.90
55213;DHT22;41083;52.932;6.674;2024-02-26T02:53:04;4.50;99.90
55213;DHT22;41083;52.932;6.674;2024-02-26T02:55:30;4.50;99.90
55213;DHT22;41083;52.932;6.674;2024-02-26T02:57:56;4.50;99.90
55213;DHT22;41083;52.932;6.674;2024-02-26T03:00:21;4.50;99.90
55213;DHT22;41083;52.932;6.674;2024-02-26T03:02:50;4.50;99.90
55213;DHT22;41083;52.932;6.674;2024-02-26T03:05:16;4.50;99.90
55213;DHT22;41083;52.932;6.674;2024-02-26T03:07:42;4.50;99.90
55213;DHT22;41083;52.932;6.674;2024-02-26T03:10:08;4.50;99.90
55213;DHT22;41083;52.932;6.674;2024-02-26T03:12:34;4.50;99.90
55213;DHT22;41083;52.932;6.674;2024-02-26T03:15:00;4.50;99.90
55213;DHT22;41083;52.932;6.674;2024-02-26T03:17:28;4.50;99.90
55213;DHT22;41083;52.932;6.674;2024-02-26T03:19:54;4.50;99.90
55213;DHT22;41083;52.932;6.674;2024-02-26T03:22:20;4.50;99.90
55213;DHT22;41083;52.932;6.674;2024-02-26T03:24:46;4.50;99.90
55213;DHT22;41083;52.932;6.674;2024-02-26T03:27:12;4.50;99.90
55213;DHT22;41083;52.932;6.674;2024-02-26T03:29:38;4.50;99.90
55213;DHT22;41083;52.932;6.674;2024-02-26T03:32:04;4.50;99.90
55213;DHT22;41083;52.932;6.674;2024-02-26T03:34:31;4.50;99.90
55213;DHT22;41083;52.932;6.674;2024-02-26T03:36:56;4.50;99.90
55213;DHT22;41083;52.932;6.674;2024-02-26T03:39:22;4.50;99.90
55213;DHT22;41083;52.932;6.674;2024-02-26T03:41:48;4.50;99.90
55213;DHT22;41083;52.932;6.674;2024-02-26T03:44:14;4.50;99.90
55213;DHT22;41083;52.932;6.674;2024-02-26T03:46:40;4.50;99.90
55213;DHT22;41083;52.932;6.674;2024-02-26T03:49:08;4.50;99.90
55213;DHT22;41083;52.932;6.674;2024-02-26T03:51:34;4.50;99.90
55213;DHT22;41083;52.932;6.674;2024-02-26T03:54:00;4.50;99.90
55213;DHT22;41083;52.932;6.674;2024-02-26T03:56:26;4.50;99.90
55213;DHT22;41083;52.932;6.674;2024-02-26T03:58:52;4.50;99.90
55213;DHT22;41083;52.932;6.674;2024-02-26T04:01:18;4.50;99.90
55213;DHT22;41083;52.932;6.674;2024-02-26T04:03:44;4.50;99.90
55213;DHT22;41083;52.932;6.674;2024-02-26T04:06:10;4.50;99.90
55213;DHT22;41083;52.932;6.674;2024-02-26T04:08:37;4.50;99.90
55213;DHT22;41083;52.932;6.674;2024-02-26T04:11:03;4.50;99.90
55213;DHT22;41083;52.932;6.674;2024-02-26T04:13:33;4.50;99.90
55213;DHT22;41083;52.932;6.674;2024-02-26T04:15:59;4.60;99.90
55213;DHT22;41083;52.932;6.674;2024-02-26T04:18:27;4.50;99.90
55213;DHT22;41083;52.932;6.674;2024-02-26T04:20:53;4.50;99.90
55213;DHT22;41083;52.932;6.674;2024-02-26T04:23:18;4.50;99.90
55213;DHT22;41083;52.932;6.674;2024-02-26T04:25:44;4.50;99.90
55213;DHT22;41083;52.932;6.674;2024-02-26T04:28:10;4.50;99.90
55213;DHT22;41083;52.932;6.674;2024-02-26T04:30:36;4.50;99.90
55213;DHT22;41083;52.932;6.674;2024-02-26T04:33:02;4.50;99.90
55213;DHT22;41083;52.932;6.674;2024-02-26T04:35:28;4.40;99.90
55213;DHT22;41083;52.932;6.674;2024-02-26T04:37:53;4.50;99.90
55213;DHT22;41083;52.932;6.674;2024-02-26T04:40:19;4.50;99.90
55213;DHT22;41083;52.932;6.674;2024-02-26T04:42:45;4.40;99.90
55213;DHT22;41083;52.932;6.674;2024-02-26T04:45:10;4.40;99.90
55213;DHT22;41083;52.932;6.674;2024-02-26T04:47:36;4.40;99.90
55213;DHT22;41083;52.932;6.674;2024-02-26T04:50:02;4.40;99.90
55213;DHT22;41083;52.932;6.674;2024-02-26T04:52:27;4.40;99.90
55213;DHT22;41083;52.932;6.674;2024-02-26T04:54:53;4.40;99.90
55213;DHT22;41083;52.932;6.674;2024-02-26T04:57:20;4.40;99.90
55213;DHT22;41083;52.932;6.674;2024-02-26T04:59:46;4.40;99.90
55213;DHT22;41083;52.932;6.674;2024-02-26T05:02:12;4.30;99.90
55213;DHT22;41083;52.932;6.674;2024-02-26T05:04:38;4.30;99.90
55213;DHT22;41083;52.932;6.674;2024-02-26T05:07:03;4.30;99.90
55213;DHT22;41083;52.932;6.674;2024-02-26T05:09:29;4.30;99.90
55213;DHT22;41083;52.932;6.674;2024-02-26T05:11:55;4.30;99.90
55213;DHT22;41083;52.932;6.674;2024-02-26T05:14:21;4.30;99.90
55213;DHT22;41083;52.932;6.674;2024-02-26T05:16:47;4.30;99.90
55213;DHT22;41083;52.932;6.674;2024-02-26T05:19:13;4.30;99.90
55213;DHT22;41083;52.932;6.674;2024-02-26T05:21:38;4.30;99.90
55213;DHT22;41083;52.932;6.674;2024-02-26T05:24:06;4.30;99.90
55213;DHT22;41083;52.932;6.674;2024-02-26T05:26:31;4.30;99.90
55213;DHT22;41083;52.932;6.674;2024-02-26T05:28:57;4.30;99.90
55213;DHT22;41083;52.932;6.674;2024-02-26T05:31:26;4.30;99.90
55213;DHT22;41083;52.932;6.674;2024-02-26T05:33:51;4.30;99.90
55213;DHT22;41083;52.932;6.674;2024-02-26T05:36:21;4.30;99.90
55213;DHT22;41083;52.932;6.674;2024-02-26T05:38:48;4.30;99.90
55213;DHT22;41083;52.932;6.674;2024-02-26T05:41:17;4.30;99.90
55213;DHT22;41083;52.932;6.674;2024-02-26T05:43:49;4.30;99.90
55213;DHT22;41083;52.932;6.674;2024-02-26T05:46:17;4.30;99.90
55213;DHT22;41083;52.932;6.674;2024-02-26T05:48:44;4.30;99.90
55213;DHT22;41083;52.932;6.674;2024-02-26T05:51:09;4.30;99.90
55213;DHT22;41083;52.932;6.674;2024-02-26T05:53:35;4.30;99.90
55213;DHT22;41083;52.932;6.674;2024-02-26T05:56:01;4.30;99.90
55213;DHT22;41083;52.932;6.674;2024-02-26T05:58:26;4.30;99.90
55213;DHT22;41083;52.932;6.674;2024-02-26T06:00:52;4.30;99.90
55213;DHT22;41083;52.932;6.674;2024-02-26T06:03:18;4.30;99.90
55213;DHT22;41083;52.932;6.674;2024-02-26T06:05:43;4.30;99.90
55213;DHT22;41083;52.932;6.674;2024-02-26T06:08:09;4.30;99.90
55213;DHT22;41083;52.932;6.674;2024-02-26T06:10:34;4.30;99.90
55213;DHT22;41083;52.932;6.674;2024-02-26T06:13:00;4.30;99.90
55213;DHT22;41083;52.932;6.674;2024-02-26T06:15:26;4.30;99.90
55213;DHT22;41083;52.932;6.674;2024-02-26T06:17:51;4.30;99.90
55213;DHT22;41083;52.932;6.674;2024-02-26T06:20:17;4.30;99.90
55213;DHT22;41083;52.932;6.674;2024-02-26T06:22:42;4.30;99.90
55213;DHT22;41083;52.932;6.674;2024-02-26T06:25:08;4.30;99.90
55213;DHT22;41083;52.932;6.674;2024-02-26T06:27:35;4.30;99.90
55213;DHT22;41083;52.932;6.674;2024-02-26T06:30:00;4.30;99.90
55213;DHT22;41083;52.932;6.674;2024-02-26T06:32:26;4.30;99.90
55213;DHT22;41083;52.932;6.674;2024-02-26T06:34:55;4.30;99.90
55213;DHT22;41083;52.932;6.674;2024-02-26T06:37:21;4.30;99.90
55213;DHT22;41083;52.932;6.674;2024-02-26T06:39:47;4.30;99.90
55213;DHT22;41083;52.932;6.674;2024-02-26T06:42:12;4.30;99.90
55213;DHT22;41083;52.932;6.674;2024-02-26T06:44:38;4.30;99.90
55213;DHT22;41083;52.932;6.674;2024-02-26T06:47:03;4.30;99.90
55213;DHT22;41083;52.932;6.674;2024-02-26T06:49:29;4.30;99.90
55213;DHT22;41083;52.932;6.674;2024-02-26T06:51:55;4.30;99.90
55213;DHT22;41083;52.932;6.674;2024-02-26T06:54:21;4.30;99.90
55213;DHT22;41083;52.932;6.674;2024-02-26T06:56:46;4.30;99.90
55213;DHT22;41083;52.932;6.674;2024-02-26T06:59:12;4.30;99.90
55213;DHT22;41083;52.932;6.674;2024-02-26T07:01:41;4.30;99.90
55213;DHT22;41083;52.932;6.674;2024-02-26T07:04:07;4.20;99.90
55213;DHT22;41083;52.932;6.674;2024-02-26T07:06:32;4.30;99.90
55213;DHT22;41083;52.932;6.674;2024-02-26T07:08:58;4.30;99.90
55213;DHT22;41083;52.932;6.674;2024-02-26T07:11:24;4.20;99.90
55213;DHT22;41083;52.932;6.674;2024-02-26T07:13:49;4.30;99.90
55213;DHT22;41083;52.932;6.674;2024-02-26T07:16:15;4.30;99.90
55213;DHT22;41083;52.932;6.674;2024-02-26T07:18:41;4.30;99.90
55213;DHT22;41083;52.932;6.674;2024-02-26T07:21:08;4.30;99.90
55213;DHT22;41083;52.932;6.674;2024-02-26T07:23:34;4.30;99.90
55213;DHT22;41083;52.932;6.674;2024-02-26T07:26:00;4.30;99.90
55213;DHT22;41083;52.932;6.674;2024-02-26T07:28:26;4.30;99.90
55213;DHT22;41083;52.932;6.674;2024-02-26T07:30:51;4.30;99.90
55213;DHT22;41083;52.932;6.674;2024-02-26T07:33:17;4.30;99.90
55213;DHT22;41083;52.932;6.674;2024-02-26T07:35:43;4.40;99.90
55213;DHT22;41083;52.932;6.674;2024-02-26T07:38:08;4.30;99.90
55213;DHT22;41083;52.932;6.674;2024-02-26T07:40:34;4.40;99.90
55213;DHT22;41083;52.932;6.674;2024-02-26T07:43:00;4.40;99.90
55213;DHT22;41083;52.932;6.674;2024-02-26T07:45:25;4.40;99.90
55213;DHT22;41083;52.932;6.674;2024-02-26T07:47:51;4.40;99.90
55213;DHT22;41083;52.932;6.674;2024-02-26T07:50:17;4.40;99.90
55213;DHT22;41083;52.932;6.674;2024-02-26T07:52:43;4.40;99.90
55213;DHT22;41083;52.932;6.674;2024-02-26T07:55:10;4.40;99.90
55213;DHT22;41083;52.932;6.674;2024-02-26T07:57:36;4.40;99.90
55213;DHT22;41083;52.932;6.674;2024-02-26T08:00:03;4.40;99.90
55213;DHT22;41083;52.932;6.674;2024-02-26T08:02:28;4.40;99.90
55213;DHT22;41083;52.932;6.674;2024-02-26T08:04:54;4.40;99.90
55213;DHT22;41083;52.932;6.674;2024-02-26T08:07:20;4.40;99.90
55213;DHT22;41083;52.932;6.674;2024-02-26T08:09:48;4.40;99.90
55213;DHT22;41083;52.932;6.674;2024-02-26T08:12:14;4.40;99.90
55213;DHT22;41083;52.932;6.674;2024-02-26T08:14:40;4.40;99.90
55213;DHT22;41083;52.932;6.674;2024-02-26T08:17:06;4.50;99.90
55213;DHT22;41083;52.932;6.674;2024-02-26T08:19:31;4.50;99.90
55213;DHT22;41083;52.932;6.674;2024-02-26T08:21:57;4.50;99.90
55213;DHT22;41083;52.932;6.674;2024-02-26T08:24:23;4.50;99.90
55213;DHT22;41083;52.932;6.674;2024-02-26T08:26:48;4.50;99.90
55213;DHT22;41083;52.932;6.674;2024-02-26T08:29:14;4.50;99.90
55213;DHT22;41083;52.932;6.674;2024-02-26T08:31:40;4.50;99.90
55213;DHT22;41083;52.932;6.674;2024-02-26T08:34:06;4.50;99.90
55213;DHT22;41083;52.932;6.674;2024-02-26T08:36:33;4.50;99.90
55213;DHT22;41083;52.932;6.674;2024-02-26T08:38:59;4.50;99.90
55213;DHT22;41083;52.932;6.674;2024-02-26T08:41:25;4.50;99.90
55213;DHT22;41083;52.932;6.674;2024-02-26T08:43:51;4.50;99.90
55213;DHT22;41083;52.932;6.674;2024-02-26T08:46:16;4.50;99.90
55213;DHT22;41083;52.932;6.674;2024-02-26T08:48:42;4.50;99.90
55213;DHT22;41083;52.932;6.674;2024-02-26T08:51:08;4.60;99.90
55213;DHT22;41083;52.932;6.674;2024-02-26T08:53:35;4.50;99.90
55213;DHT22;41083;52.932;6.674;2024-02-26T08:56:01;4.60;99.90
55213;DHT22;41083;52.932;6.674;2024-02-26T08:58:28;4.60;99.90
55213;DHT22;41083;52.932;6.674;2024-02-26T09:00:54;4.60;99.90
55213;DHT22;41083;52.932;6.674;2024-02-26T09:03:20;4.60;99.90
55213;DHT22;41083;52.932;6.674;2024-02-26T09:05:46;4.60;99.90
55213;DHT22;41083;52.932;6.674;2024-02-26T09:08:11;4.60;99.90
55213;DHT22;41083;52.932;6.674;2024-02-26T09:10:38;4.60;99.90
55213;DHT22;41083;52.932;6.674;2024-02-26T09:13:04;4.70;99.90
55213;DHT22;41083;52.932;6.674;2024-02-26T09:15:30;4.70;99.90
55213;DHT22;41083;52.932;6.674;2024-02-26T09:17:56;4.70;99.90
55213;DHT22;41083;52.932;6.674;2024-02-26T09:20:21;4.70;99.90
55213;DHT22;41083;52.932;6.674;2024-02-26T09:22:49;4.70;99.90
55213;DHT22;41083;52.932;6.674;2024-02-26T09:25:15;4.70;99.90
55213;DHT22;41083;52.932;6.674;2024-02-26T09:27:43;4.80;99.90
55213;DHT22;41083;52.932;6.674;2024-02-26T09:30:10;4.80;99.90
55213;DHT22;41083;52.932;6.674;2024-02-26T09:32:36;4.80;99.90
55213;DHT22;41083;52.932;6.674;2024-02-26T09:35:02;4.80;99.90
55213;DHT22;41083;52.932;6.674;2024-02-26T09:37:28;4.80;99.90
55213;DHT22;41083;52.932;6.674;2024-02-26T09:39:54;4.80;99.90
55213;DHT22;41083;52.932;6.674;2024-02-26T09:42:20;4.90;99.90
55213;DHT22;41083;52.932;6.674;2024-02-26T09:44:46;4.90;99.90
55213;DHT22;41083;52.932;6.674;2024-02-26T09:47:14;4.90;99.90
55213;DHT22;41083;52.932;6.674;2024-02-26T09:49:42;4.90;99.90
55213;DHT22;41083;52.932;6.674;2024-02-26T09:52:08;4.90;99.90
55213;DHT22;41083;52.932;6.674;2024-02-26T09:54:35;4.90;99.90
55213;DHT22;41083;52.932;6.674;2024-02-26T09:57:03;4.90;99.90
55213;DHT22;41083;52.932;6.674;2024-02-26T09:59:39;4.90;99.90
55213;DHT22;41083;52.932;6.674;2024-02-26T10:02:11;5.00;99.90
55213;DHT22;41083;52.932;6.674;2024-02-26T10:04:38;5.00;99.90
55213;DHT22;41083;52.932;6.674;2024-02-26T10:07:10;5.00;99.90
55213;DHT22;41083;52.932;6.674;2024-02-26T10:09:36;5.00;99.90
55213;DHT22;41083;52.932;6.674;2024-02-26T10:12:07;5.00;99.90
55213;DHT22;41083;52.932;6.674;2024-02-26T10:14:34;5.00;99.90
55213;DHT22;41083;52.932;6.674;2024-02-26T10:16:59;5.00;99.90
55213;DHT22;41083;52.932;6.674;2024-02-26T10:19:29;5.10;99.90
55213;DHT22;41083;52.932;6.674;2024-02-26T10:22:00;5.10;99.90
55213;DHT22;41083;52.932;6.674;2024-02-26T10:24:27;5.10;99.90
55213;DHT22;41083;52.932;6.674;2024-02-26T10:26:54;5.10;99.90
55213;DHT22;41083;52.932;6.674;2024-02-26T10:29:21;5.10;99.90
55213;DHT22;41083;52.932;6.674;2024-02-26T10:31:47;5.10;99.90
55213;DHT22;41083;52.932;6.674;2024-02-26T10:34:14;5.10;99.90
55213;DHT22;41083;52.932;6.674;2024-02-26T10:36:40;5.10;99.90
55213;DHT22;41083;52.932;6.674;2024-02-26T10:39:09;5.10;99.90
55213;DHT22;41083;52.932;6.674;2024-02-26T10:41:37;5.10;99.90
55213;DHT22;41083;52.932;6.674;2024-02-26T10:44:02;5.10;99.90
55213;DHT22;41083;52.932;6.674;2024-02-26T10:46:28;5.10;99.90
55213;DHT22;41083;52.932;6.674;2024-02-26T10:48:54;5.20;99.90
55213;DHT22;41083;52.932;6.674;2024-02-26T10:51:27;5.10;99.90
55213;DHT22;41083;52.932;6.674;2024-02-26T10:53:59;5.20;99.90
55213;DHT22;41083;52.932;6.674;2024-02-26T10:56:28;5.20;99.90
55213;DHT22;41083;52.932;6.674;2024-02-26T10:58:57;5.20;99.90
55213;DHT22;41083;52.932;6.674;2024-02-26T11:01:24;5.30;99.90
55213;DHT22;41083;52.932;6.674;2024-02-26T11:03:55;5.20;99.90
55213;DHT22;41083;52.932;6.674;2024-02-26T11:06:22;5.30;99.90
55213;DHT22;41083;52.932;6.674;2024-02-26T11:08:48;5.30;99.90
55213;DHT22;41083;52.932;6.674;2024-02-26T11:11:15;5.30;99.90
55213;DHT22;41083;52.932;6.674;2024-02-26T11:13:42;5.30;99.90
55213;DHT22;41083;52.932;6.674;2024-02-26T11:16:11;5.30;99.90
55213;DHT22;41083;52.932;6.674;2024-02-26T11:18:39;5.30;99.90
55213;DHT22;41083;52.932;6.674;2024-02-26T11:21:07;5.40;99.90
55213;DHT22;41083;52.932;6.674;2024-02-26T11:23:34;5.40;99.90
55213;DHT22;41083;52.932;6.674;2024-02-26T11:26:04;5.40;99.90
55213;DHT22;41083;52.932;6.674;2024-02-26T11:28:32;5.40;99.90
55213;DHT22;41083;52.932;6.674;2024-02-26T11:30:59;5.50;99.90
55213;DHT22;41083;52.932;6.674;2024-02-26T11:33:26;5.50;99.90
55213;DHT22;41083;52.932;6.674;2024-02-26T11:35:53;5.50;99.90
55213;DHT22;41083;52.932;6.674;2024-02-26T11:38:25;5.50;99.90
55213;DHT22;41083;52.932;6.674;2024-02-26T11:40:53;5.60;99.90
55213;DHT22;41083;52.932;6.674;2024-02-26T11:43:23;5.60;99.90
55213;DHT22;41083;52.932;6.674;2024-02-26T11:45:50;5.60;99.90
55213;DHT22;41083;52.932;6.674;2024-02-26T11:48:22;5.60;99.90
55213;DHT22;41083;52.932;6.674;2024-02-26T11:50:51;5.70;99.90
55213;DHT22;41083;52.932;6.674;2024-02-26T11:58:45;5.70;99.90
55213;DHT22;41083;52.932;6.674;2024-02-26T12:04:13;5.70;99.90
55213;DHT22;41083;52.932;6.674;2024-02-26T12:06:56;5.80;99.90
55213;DHT22;41083;52.932;6.674;2024-02-26T12:09:37;5.80;99.90
55213;DHT22;41083;52.932;6.674;2024-02-26T12:12:07;5.80;99.90
55213;DHT22;41083;52.932;6.674;2024-02-26T12:14:55;5.80;99.90
55213;DHT22;41083;52.932;6.674;2024-02-26T12:17:22;5.80;99.90
55213;DHT22;41083;52.932;6.674;2024-02-26T12:19:49;5.80;99.90
55213;DHT22;41083;52.932;6.674;2024-02-26T12:22:16;5.80;99.90
55213;DHT22;41083;52.932;6.674;2024-02-26T12:24:45;5.80;99.90
55213;DHT22;41083;52.932;6.674;2024-02-26T12:27:11;5.80;99.90
55213;DHT22;41083;52.932;6.674;2024-02-26T12:29:36;5.80;99.90
55213;DHT22;41083;52.932;6.674;2024-02-26T12:32:04;5.80;99.90
55213;DHT22;41083;52.932;6.674;2024-02-26T12:34:31;5.80;99.90
55213;DHT22;41083;52.932;6.674;2024-02-26T12:36:57;5.90;99.90
55213;DHT22;41083;52.932;6.674;2024-02-26T12:39:23;5.90;99.90
55213;DHT22;41083;52.932;6.674;2024-02-26T12:41:48;5.90;99.90
55213;DHT22;41083;52.932;6.674;2024-02-26T12:44:18;5.80;99.90
55213;DHT22;41083;52.932;6.674;2024-02-26T12:46:44;5.90;99.90
55213;DHT22;41083;52.932;6.674;2024-02-26T12:49:15;5.80;99.90
55213;DHT22;41083;52.932;6.674;2024-02-26T12:51:44;5.80;99.90
55213;DHT22;41083;52.932;6.674;2024-02-26T12:54:10;5.90;99.90
55213;DHT22;41083;52.932;6.674;2024-02-26T12:56:36;5.90;99.90
55213;DHT22;41083;52.932;6.674;2024-02-26T12:59:02;5.90;99.90
55213;DHT22;41083;52.932;6.674;2024-02-26T13:01:29;5.90;99.90
55213;DHT22;41083;52.932;6.674;2024-02-26T13:03:55;5.90;99.90
55213;DHT22;41083;52.932;6.674;2024-02-26T13:06:22;5.90;99.90
55213;DHT22;41083;52.932;6.674;2024-02-26T13:08:48;5.90;99.90
55213;DHT22;41083;52.932;6.674;2024-02-26T13:11:14;5.90;99.90
55213;DHT22;41083;52.932;6.674;2024-02-26T13:13:39;5.90;99.90
55213;DHT22;41083;52.932;6.674;2024-02-26T13:16:07;5.90;99.90
55213;DHT22;41083;52.932;6.674;2024-02-26T13:18:34;5.90;99.90
55213;DHT22;41083;52.932;6.674;2024-02-26T13:21:15;5.90;99.90
55213;DHT22;41083;52.932;6.674;2024-02-26T13:23:45;5.90;99.90
55213;DHT22;41083;52.932;6.674;2024-02-26T13:26:13;5.90;99.90
55213;DHT22;41083;52.932;6.674;2024-02-26T13:28:40;5.90;99.90
55213;DHT22;41083;52.932;6.674;2024-02-26T13:31:06;5.90;99.90
55213;DHT22;41083;52.932;6.674;2024-02-26T13:33:33;5.80;99.90
55213;DHT22;41083;52.932;6.674;2024-02-26T13:36:00;5.80;99.90
55213;DHT22;41083;52.932;6.674;2024-02-26T13:38:26;5.80;99.90
55213;DHT22;41083;52.932;6.674;2024-02-26T13:40:53;5.80;99.90
55213;DHT22;41083;52.932;6.674;2024-02-26T13:43:19;5.80;99.90
55213;DHT22;41083;52.932;6.674;2024-02-26T13:45:45;5.80;99.90
55213;DHT22;41083;52.932;6.674;2024-02-26T13:48:12;5.70;99.90
55213;DHT22;41083;52.932;6.674;2024-02-26T13:50:39;5.70;99.90
55213;DHT22;41083;52.932;6.674;2024-02-26T13:53:05;5.70;99.90
55213;DHT22;41083;52.932;6.674;2024-02-26T13:55:31;5.70;99.90
55213;DHT22;41083;52.932;6.674;2024-02-26T13:57:58;5.70;99.90
55213;DHT22;41083;52.932;6.674;2024-02-26T14:00:24;5.70;99.90
55213;DHT22;41083;52.932;6.674;2024-02-26T14:02:51;5.70;99.90
55213;DHT22;41083;52.932;6.674;2024-02-26T14:05:17;5.60;99.90
55213;DHT22;41083;52.932;6.674;2024-02-26T14:07:42;5.60;99.90
55213;DHT22;41083;52.932;6.674;2024-02-26T14:10:09;5.60;99.90
55213;DHT22;41083;52.932;6.674;2024-02-26T14:12:37;5.60;99.90
55213;DHT22;41083;52.932;6.674;2024-02-26T14:15:05;5.60;99.90
55213;DHT22;41083;52.932;6.674;2024-02-26T14:17:31;5.50;99.90
55213;DHT22;41083;52.932;6.674;2024-02-26T14:19:56;5.60;99.90
55213;DHT22;41083;52.932;6.674;2024-02-26T14:22:22;5.60;99.90
55213;DHT22;41083;52.932;6.674;2024-02-26T14:24:48;5.50;99.90
55213;DHT22;41083;52.932;6.674;2024-02-26T14:27:13;5.50;99.90
55213;DHT22;41083;52.932;6.674;2024-02-26T14:29:45;5.50;99.90
55213;DHT22;41083;52.932;6.674;2024-02-26T14:32:12;5.50;99.90
55213;DHT22;41083;52.932;6.674;2024-02-26T14:34:37;5.50;99.90
55213;DHT22;41083;52.932;6.674;2024-02-26T14:37:03;5.50;99.90
55213;DHT22;41083;52.932;6.674;2024-02-26T14:39:30;5.50;99.90
55213;DHT22;41083;52.932;6.674;2024-02-26T14:41:57;5.50;99.90
55213;DHT22;41083;52.932;6.674;2024-02-26T14:44:23;5.50;99.90
55213;DHT22;41083;52.932;6.674;2024-02-26T14:46:49;5.50;99.90
55213;DHT22;41083;52.932;6.674;2024-02-26T14:49:15;5.50;99.90
55213;DHT22;41083;52.932;6.674;2024-02-26T14:51:41;5.50;99.90
55213;DHT22;41083;52.932;6.674;2024-02-26T14:54:07;5.50;99.90
55213;DHT22;41083;52.932;6.674;2024-02-26T14:56:32;5.50;99.90
55213;DHT22;41083;52.932;6.674;2024-02-26T14:58:58;5.50;99.90
55213;DHT22;41083;52.932;6.674;2024-02-26T15:01:24;5.50;99.90
55213;DHT22;41083;52.932;6.674;2024-02-26T15:03:49;5.50;99.90
55213;DHT22;41083;52.932;6.674;2024-02-26T15:06:15;5.50;99.90
55213;DHT22;41083;52.932;6.674;2024-02-26T15:08:41;5.50;99.90
55213;DHT22;41083;52.932;6.674;2024-02-26T15:11:06;5.40;99.90
55213;DHT22;41083;52.932;6.674;2024-02-26T15:13:33;5.50;99.90
55213;DHT22;41083;52.932;6.674;2024-02-26T15:15:59;5.50;99.90
55213;DHT22;41083;52.932;6.674;2024-02-26T15:18:24;5.50;99.90
55213;DHT22;41083;52.932;6.674;2024-02-26T15:20:51;5.50;99.90
55213;DHT22;41083;52.932;6.674;2024-02-26T15:23:16;5.50;99.90
55213;DHT22;41083;52.932;6.674;2024-02-26T15:25:43;5.50;99.90
55213;DHT22;41083;52.932;6.674;2024-02-26T15:28:09;5.50;99.90
55213;DHT22;41083;52.932;6.674;2024-02-26T15:30:37;5.50;99.90
55213;DHT22;41083;52.932;6.674;2024-02-26T15:33:02;5.50;99.90
55213;DHT22;41083;52.932;6.674;2024-02-26T15:35:28;5.50;99.90
55213;DHT22;41083;52.932;6.674;2024-02-26T15:37:54;5.50;99.90
55213;DHT22;41083;52.932;6.674;2024-02-26T15:40:20;5.50;99.90
55213;DHT22;41083;52.932;6.674;2024-02-26T15:42:47;5.50;99.90
55213;DHT22;41083;52.932;6.674;2024-02-26T15:45:12;5.50;99.90
55213;DHT22;41083;52.932;6.674;2024-02-26T15:47:38;5.50;99.90
55213;DHT22;41083;52.932;6.674;2024-02-26T15:50:05;5.50;99.90